createdAt,value
2022-09-28T00:04:33.067Z,9.00
2022-09-28T00:09:34.744Z,9.00
2022-09-28T00:14:37.001Z,8.80
2022-09-28T00:19:40.320Z,8.90
2022-09-28T00:24:41.971Z,8.90
2022-09-28T00:29:43.798Z,9.00
2022-09-28T00:34:48.909Z,9.10
2022-09-28T00:39:50.669Z,9.10
2022-09-28T00:44:59.297Z,9.10
2022-09-28T00:50:02.752Z,9.10
2022-09-28T00:55:09.479Z,9.10
2022-09-28T01:00:12.011Z,9.20
2022-09-28T01:05:14.781Z,9.20
2022-09-28T01:10:16.614Z,9.30
2022-09-28T01:15:21.730Z,9.50
2022-09-28T01:20:54.060Z,9.60
2022-09-28T01:26:18.687Z,9.60
2022-09-28T01:31:25.819Z,9.60
2022-09-28T01:36:30.069Z,9.50
2022-09-28T01:41:36.605Z,9.50
2022-09-28T01:46:45.089Z,9.60
2022-09-28T01:52:17.279Z,9.60
2022-09-28T01:57:39.229Z,9.70
2022-09-28T02:02:53.950Z,9.60
2022-09-28T02:08:08.751Z,9.50
2022-09-28T02:13:32.921Z,9.60
2022-09-28T02:18:35.511Z,9.70
2022-09-28T02:23:41.573Z,9.50
2022-09-28T02:28:43.360Z,9.60
2022-09-28T02:33:47.356Z,9.50
2022-09-28T02:38:49.028Z,9.40
2022-09-28T02:44:10.413Z,9.40
2022-09-28T02:49:37.660Z,9.30
2022-09-28T02:54:59.471Z,9.20
2022-09-28T03:00:10.602Z,9.10
2022-09-28T03:05:25.576Z,9.10
2022-09-28T03:10:59.534Z,9.20
2022-09-28T03:16:21.585Z,9.10
2022-09-28T03:21:24.774Z,9.40
2022-09-28T03:26:26.540Z,9.50
2022-09-28T03:31:28.376Z,9.50
2022-09-28T03:36:30.136Z,9.50
2022-09-28T03:41:31.919Z,9.50
2022-09-28T03:46:33.647Z,9.50
2022-09-28T03:51:40.560Z,9.70
2022-09-28T03:56:43.647Z,9.80
2022-09-28T04:01:45.464Z,9.80
2022-09-28T04:06:47.443Z,9.80
2022-09-28T04:12:03.221Z,9.80
2022-09-28T04:17:07.140Z,9.60
2022-09-28T04:22:09.181Z,9.80
2022-09-28T04:27:29.615Z,9.70
2022-09-28T04:32:31.705Z,10.00
2022-09-28T04:37:33.751Z,10.10
2022-09-28T04:42:36.799Z,10.10
2022-09-28T04:47:38.548Z,10.20
2022-09-28T04:52:53.026Z,10.00
2022-09-28T04:57:54.715Z,10.10
2022-09-28T05:02:56.496Z,10.10
2022-09-28T05:08:17.142Z,10.20
2022-09-28T05:13:20.933Z,10.20
2022-09-28T05:18:23.032Z,10.20
2022-09-28T05:23:34.878Z,10.10
2022-09-28T05:28:36.850Z,10.10
2022-09-28T05:34:10.575Z,10.10
2022-09-28T05:39:12.611Z,10.10
2022-09-28T05:44:14.327Z,10.20
2022-09-28T05:49:17.194Z,10.20
2022-09-28T05:54:19.186Z,10.30
2022-09-28T05:59:21.844Z,10.30
2022-09-28T06:04:24.299Z,10.20
2022-09-28T06:09:26.408Z,10.30
2022-09-28T06:14:51.333Z,10.40
2022-09-28T06:19:53.144Z,10.60
2022-09-28T06:25:00.908Z,10.60
2022-09-28T06:30:03.019Z,10.90
2022-09-28T06:35:05.504Z,11.30
2022-09-28T06:40:08.179Z,11.60
2022-09-28T06:45:10.980Z,11.80
2022-09-28T06:50:32.246Z,11.90
2022-09-28T06:56:12.488Z,11.80
2022-09-28T07:01:14.328Z,11.50
2022-09-28T07:06:24.038Z,11.40
2022-09-28T07:11:44.662Z,12.10
2022-09-28T07:17:13.726Z,12.40
2022-09-28T07:22:19.357Z,11.90
2022-09-28T07:27:25.535Z,11.50
2022-09-28T07:32:48.379Z,11.10
2022-09-28T07:38:16.450Z,11.10
2022-09-28T07:43:21.670Z,10.90
2022-09-28T07:48:25.970Z,10.90
2022-09-28T07:53:45.857Z,11.00
2022-09-28T07:59:17.500Z,11.70
2022-09-28T08:04:38.240Z,12.20
2022-09-28T08:09:40.211Z,12.40
2022-09-28T08:15:02.087Z,12.20
2022-09-28T08:20:58.271Z,12.30
2022-09-28T08:26:00.481Z,12.50
2022-09-28T08:31:03.142Z,14.70
2022-09-28T08:36:44.476Z,17.30
2022-09-28T08:42:38.765Z,15.50
2022-09-28T08:48:40.854Z,14.20
2022-09-28T08:54:40.487Z,13.50
2022-09-28T08:59:48.948Z,15.20
2022-09-28T09:04:57.084Z,15.80
2022-09-28T09:10:22.353Z,15.80
2022-09-28T09:15:54.079Z,18.00
2022-09-28T09:21:41.602Z,19.50
2022-09-28T09:26:43.458Z,17.00
2022-09-28T09:31:59.418Z,15.70
2022-09-28T09:37:19.388Z,14.90
2022-09-28T09:43:14.325Z,14.70
2022-09-28T09:48:27.034Z,14.40
2022-09-28T09:53:40.586Z,15.00
2022-09-28T09:58:57.362Z,16.00
2022-09-28T10:04:14.306Z,19.50
2022-09-28T10:09:38.016Z,21.50
2022-09-28T10:15:09.197Z,19.40
2022-09-28T10:20:25.471Z,16.90
2022-09-28T10:25:45.016Z,15.40
2022-09-28T10:30:46.750Z,14.70
2022-09-28T10:35:49.019Z,14.40
2022-09-28T10:40:54.381Z,13.90
2022-09-28T10:46:11.993Z,13.80
2022-09-28T10:51:16.145Z,13.80
2022-09-28T10:56:22.898Z,13.40
2022-09-28T11:01:33.592Z,13.50
2022-09-28T11:06:39.024Z,15.00
2022-09-28T11:11:43.863Z,15.70
2022-09-28T11:16:46.063Z,15.50
2022-09-28T11:21:48.662Z,16.00
2022-09-28T11:27:00.488Z,15.10
2022-09-28T11:32:05.929Z,14.80
2022-09-28T11:37:40.172Z,14.80
2022-09-28T11:43:15.782Z,14.80
2022-09-28T11:48:25.576Z,14.50
2022-09-28T11:53:45.266Z,14.30
2022-09-28T11:58:50.762Z,14.00
2022-09-28T12:04:02.717Z,14.20
2022-09-28T12:09:22.213Z,14.30
2022-09-28T12:14:38.234Z,14.40
2022-09-28T12:19:48.629Z,14.20
2022-09-28T12:24:55.337Z,14.60
2022-09-28T12:30:04.020Z,15.70
2022-09-28T12:35:12.990Z,15.60
2022-09-28T12:40:38.106Z,16.20
2022-09-28T12:46:12.769Z,17.00
2022-09-28T12:51:50.201Z,16.00
2022-09-28T12:57:21.817Z,15.50
2022-09-28T13:02:27.001Z,14.90
2022-09-28T13:08:31.319Z,14.90
2022-09-28T13:13:32.929Z,15.10
2022-09-28T13:18:45.494Z,15.40
2022-09-28T13:23:49.691Z,16.20
2022-09-28T13:28:54.689Z,16.80
2022-09-28T13:33:57.338Z,17.70
2022-09-28T13:39:00.694Z,17.90
2022-09-28T13:44:11.984Z,17.90
2022-09-28T13:49:38.185Z,17.30
2022-09-28T13:54:51.626Z,17.10
2022-09-28T14:00:22.234Z,17.10
2022-09-28T14:05:30.223Z,17.30
2022-09-28T14:10:53.511Z,17.20
2022-09-28T14:16:18.356Z,17.50
2022-09-28T14:21:31.880Z,17.90
2022-09-28T14:26:58.363Z,17.80
2022-09-28T14:32:09.335Z,18.00
2022-09-28T14:37:58.469Z,17.70
2022-09-28T14:43:24.976Z,16.50
2022-09-28T14:49:07.313Z,15.70
2022-09-28T14:54:10.133Z,15.40
2022-09-28T14:59:19.506Z,15.10
2022-09-28T15:04:25.808Z,15.00
2022-09-28T15:09:33.673Z,14.90
2022-09-28T15:14:46.097Z,15.40
2022-09-28T15:20:02.541Z,15.30
2022-09-28T15:25:14.391Z,15.10
2022-09-28T15:30:25.422Z,14.70
2022-09-28T15:35:28.250Z,14.70
2022-09-28T15:40:38.879Z,14.50
2022-09-28T15:45:41.202Z,14.40
2022-09-28T15:50:56.893Z,14.30
2022-09-28T15:56:09.848Z,14.20
2022-09-28T16:01:22.125Z,14.00
2022-09-28T16:06:23.884Z,14.00
2022-09-28T16:11:36.431Z,13.90
2022-09-28T16:16:46.984Z,13.70
2022-09-28T16:21:52.677Z,13.70
2022-09-28T16:27:01.120Z,13.60
2022-09-28T16:32:41.751Z,13.50
2022-09-28T16:37:43.547Z,13.40
2022-09-28T16:42:49.141Z,13.30
2022-09-28T16:47:52.952Z,13.20
2022-09-28T16:53:20.255Z,13.10
2022-09-28T16:58:22.495Z,12.90
2022-09-28T17:03:25.117Z,12.80
2022-09-28T17:08:30.274Z,12.70
2022-09-28T17:13:33.778Z,12.60
2022-09-28T17:18:39.078Z,12.50
2022-09-28T17:23:41.226Z,12.40
2022-09-28T17:28:42.876Z,12.30
2022-09-28T17:33:44.716Z,12.20
2022-09-28T17:38:49.269Z,12.00
2022-09-28T17:43:50.946Z,11.70
2022-09-28T17:48:52.889Z,11.60
2022-09-28T17:53:56.122Z,11.60
2022-09-28T17:59:00.897Z,11.40
2022-09-28T18:04:04.932Z,11.30
2022-09-28T18:09:08.602Z,11.30
2022-09-28T18:14:11.312Z,11.20
2022-09-28T18:19:13.398Z,11.10
2022-09-28T18:24:15.349Z,11.10
2022-09-28T18:29:20.037Z,11.10
2022-09-28T18:34:21.744Z,10.80
2022-09-28T18:39:23.941Z,10.70
2022-09-28T18:44:25.608Z,10.60
2022-09-28T18:49:27.312Z,10.40
2022-09-28T18:54:29.030Z,10.40
2022-09-28T18:59:30.758Z,10.50
2022-09-28T19:04:32.448Z,10.50
2022-09-28T19:09:34.440Z,10.50
2022-09-28T19:14:36.136Z,10.40
2022-09-28T19:19:38.213Z,10.20
2022-09-28T19:24:40.030Z,10.10
2022-09-28T19:29:41.765Z,10.10
2022-09-28T19:34:43.519Z,10.10
2022-09-28T19:39:45.386Z,10.20
2022-09-28T19:44:47.362Z,10.40
2022-09-28T19:49:49.893Z,10.40
2022-09-28T19:55:01.530Z,10.20
2022-09-28T20:00:04.303Z,10.30
2022-09-28T20:05:09.012Z,10.50
2022-09-28T20:10:11.915Z,10.60
2022-09-28T20:15:13.750Z,10.40
2022-09-28T20:20:15.509Z,10.30
2022-09-28T20:25:18.032Z,10.30
2022-09-28T20:30:20.653Z,10.20
2022-09-28T20:35:32.072Z,10.30
2022-09-28T20:40:36.460Z,10.30
2022-09-28T20:45:38.260Z,10.40
2022-09-28T20:50:41.209Z,10.50
2022-09-28T20:55:44.384Z,10.30
2022-09-28T21:00:46.098Z,10.50
2022-09-28T21:05:50.742Z,10.40
2022-09-28T21:10:56.172Z,10.30
2022-09-28T21:16:01.969Z,10.40
2022-09-28T21:21:07.139Z,10.40
2022-09-28T21:26:11.357Z,10.30
2022-09-28T21:31:14.497Z,10.20
2022-09-28T21:36:16.258Z,10.30
2022-09-28T21:41:17.968Z,10.00
2022-09-28T21:46:20.195Z,9.90
2022-09-28T21:51:22.033Z,9.70
2022-09-28T21:56:23.850Z,9.50
2022-09-28T22:01:26.032Z,9.60
2022-09-28T22:06:28.431Z,9.70
2022-09-28T22:11:30.388Z,9.60
2022-09-28T22:16:32.357Z,9.50
2022-09-28T22:21:34.860Z,9.50
2022-09-28T22:26:37.567Z,9.50
2022-09-28T22:31:40.649Z,9.40
2022-09-28T22:36:42.586Z,9.30
2022-09-28T22:41:44.362Z,9.10
2022-09-28T22:46:46.565Z,9.10
2022-09-28T22:51:48.601Z,9.10
2022-09-28T22:56:50.370Z,9.10
2022-09-28T23:01:52.154Z,9.00
2022-09-28T23:06:56.508Z,9.00
2022-09-28T23:11:58.248Z,9.00
2022-09-28T23:17:00.004Z,9.10
2022-09-28T23:22:01.712Z,9.00
2022-09-28T23:27:03.655Z,8.90
2022-09-28T23:32:05.380Z,9.00
2022-09-28T23:37:07.090Z,9.00
2022-09-28T23:42:09.521Z,9.10
2022-09-28T23:47:11.277Z,9.00
2022-09-28T23:52:14.262Z,8.80
2022-09-28T23:57:15.993Z,8.80
